0148 UTC 21 December 2014 found at http://aviationweather.gov/adds/metars/
 
METAR text: KMNH 210133Z AUTO 17005KT 10SM CLR M01/M06 A2995 RMK AO2
Conditions at: KMNH (MONUMENT/ELBERT , CO, US) observed 0133 UTC 21 December 2014
Temperature: -1.0°C (30°F)
Dewpoint: -6.0°C (21°F) [RH = 69%]
Pressure (altimeter): 29.95 inches Hg (1014.3 mb)
Winds: from the S (170 degrees) at 6 MPH (5 knots; 2.6 m/s)
Visibility: 10 or more miles (16+ km)
Ceiling: at least 12,000 feet AGL
Clouds: sky clear below 12,000 feet AGL
Weather: automated observation with no human augmentation;
there may or may not be significant weather present at this time

METAR text: KMNH 210114Z AUTO 17003KT 10SM CLR M01/M06 A2995 RMK AO2
Conditions at: KMNH (MONUMENT/ELBERT , CO, US) observed 0114 UTC 21 December 2014
Temperature: -1.0°C (30°F)
Dewpoint: -6.0°C (21°F) [RH = 69%]
Pressure (altimeter): 29.95 inches Hg (1014.3 mb)
Winds: from the S (170 degrees) at 3 MPH (3 knots; 1.6 m/s)
Visibility: 10 or more miles (16+ km)
Ceiling: at least 12,000 feet AGL
Clouds: sky clear below 12,000 feet AGL
Weather: automated observation with no human augmentation;
there may or may not be significant weather present at this time

METAR text: KMNH 210054Z AUTO 16003KT 10SM SCT080 M01/M06 A2995 RMK AO2
Conditions at: KMNH (MONUMENT/ELBERT , CO, US) observed 0054 UTC 21 December 2014
Temperature: -1.0°C (30°F)
Dewpoint: -6.0°C (21°F) [RH = 69%]
Pressure (altimeter): 29.95 inches Hg (1014.3 mb)
Winds: from the SSE (160 degrees) at 3 MPH (3 knots; 1.6 m/s)
Visibility: 10 or more miles (16+ km)
Ceiling: at least 12,000 feet AGL
Clouds: scattered clouds at 8000 feet AGL
Weather: automated observation with no human augmentation;
there may or may not be significant weather present at this time

METAR text: KMNH 210034Z AUTO 13003KT 10SM SCT090 BKN120 00/M06 A2995 RMK AO2
Conditions at: KMNH (MONUMENT/ELBERT , CO, US) observed 0034 UTC 21 December 2014
Temperature: 0.0°C (32°F)
Dewpoint: -6.0°C (21°F) [RH = 64%]
Pressure (altimeter): 29.95 inches Hg (1014.3 mb)
Winds: from the SE (130 degrees) at 3 MPH (3 knots; 1.6 m/s)
Visibility: 10 or more miles (16+ km)
Ceiling: 12000 feet AGL
Clouds: scattered clouds at 9000 feet AGL
broken clouds at 12000 feet AGL
Weather: automated observation with no human augmentation;
there may or may not be significant weather present at this time

METAR text: KMNH 210014Z AUTO 09004KT 10SM BKN090 01/M06 A2995 RMK AO2
Conditions at: KMNH (MONUMENT/ELBERT , CO, US) observed 0014 UTC 21 December 2014
Temperature: 1.0°C (34°F)
Dewpoint: -6.0°C (21°F) [RH = 59%]
Pressure (altimeter): 29.95 inches Hg (1014.3 mb)
Winds: from the E (90 degrees) at 5 MPH (4 knots; 2.1 m/s)
Visibility: 10 or more miles (16+ km)
Ceiling: 9000 feet AGL
Clouds: broken clouds at 9000 feet AGL
Weather: automated observation with no human augmentation;
there may or may not be significant weather present at this time

METAR text: KMNH 202354Z AUTO 11003KT 10SM BKN090 00/M06 A2995 RMK AO2
Conditions at: KMNH (MONUMENT/ELBERT , CO, US) observed 2354 UTC 20 December 2014
Temperature: 0.0°C (32°F)
Dewpoint: -6.0°C (21°F) [RH = 64%]
Pressure (altimeter): 29.95 inches Hg (1014.3 mb)
Winds: from the ESE (110 degrees) at 3 MPH (3 knots; 1.6 m/s)
Visibility: 10 or more miles (16+ km)
Ceiling: 9000 feet AGL
Clouds: broken clouds at 9000 feet AGL
Weather: automated observation with no human augmentation;
there may or may not be significant weather present at this time

METAR text: KMNH 202334Z AUTO 11004KT 10SM OVC090 01/M06 A2995 RMK AO2
Conditions at: KMNH (MONUMENT/ELBERT , CO, US) observed 2334 UTC 20 December 2014
Temperature: 1.0°C (34°F)
Dewpoint: -6.0°C (21°F) [RH = 59%]
Pressure (altimeter): 29.95 inches Hg (1014.3 mb)
Winds: from the ESE (110 degrees) at 5 MPH (4 knots; 2.1 m/s)
Visibility: 10 or more miles (16+ km)
Ceiling: 9000 feet AGL
Clouds: overcast cloud deck at 9000 feet AGL
Weather: automated observation with no human augmentation;
there may or may not be significant weather present at this time

METAR text: KMNH 202314Z AUTO 06006KT 10SM OVC090 02/M06 A2995 RMK AO2
Conditions at: KMNH (MONUMENT/ELBERT , CO, US) observed 2314 UTC 20 December 2014
Temperature: 2.0°C (36°F)
Dewpoint: -6.0°C (21°F) [RH = 55%]
Pressure (altimeter): 29.95 inches Hg (1014.3 mb)
Winds: from the ENE (60 degrees) at 7 MPH (6 knots; 3.1 m/s)
Visibility: 10 or more miles (16+ km)
Ceiling: 9000 feet AGL
Clouds: overcast cloud deck at 9000 feet AGL
Weather: automated observation with no human augmentation;
there may or may not be significant weather present at this time

METAR text: KMNH 202254Z AUTO 04005KT 10SM OVC090 03/M06 A2995 RMK AO2
Conditions at: KMNH (MONUMENT/ELBERT , CO, US) observed 2254 UTC 20 December 2014
Temperature: 3.0°C (37°F)
Dewpoint: -6.0°C (21°F) [RH = 52%]
Pressure (altimeter): 29.95 inches Hg (1014.3 mb)
Winds: from the NE (40 degrees) at 6 MPH (5 knots; 2.6 m/s)
Visibility: 10 or more miles (16+ km)
Ceiling: 9000 feet AGL
Clouds: overcast cloud deck at 9000 feet AGL
Weather: automated observation with no human augmentation;
there may or may not be significant weather present at this time

METAR text: KMNH 202234Z AUTO 04005KT 10SM SCT070 BKN080 03/M07 A2995 RMK AO2
Conditions at: KMNH (MONUMENT/ELBERT , CO, US) observed 2234 UTC 20 December 2014
Temperature: 3.0°C (37°F)
Dewpoint: -7.0°C (19°F) [RH = 48%]
Pressure (altimeter): 29.95 inches Hg (1014.3 mb)
Winds: from the NE (40 degrees) at 6 MPH (5 knots; 2.6 m/s)
Visibility: 10 or more miles (16+ km)
Ceiling: 8000 feet AGL
Clouds: scattered clouds at 7000 feet AGL
broken clouds at 8000 feet AGL
Weather: automated observation with no human augmentation;
there may or may not be significant weather present at this time

METAR text: KMNH 202214Z AUTO 05005KT 10SM CLR 05/M08 A2995 RMK AO2
Conditions at: KMNH (MONUMENT/ELBERT , CO, US) observed 2214 UTC 20 December 2014
Temperature: 5.0°C (41°F)
Dewpoint: -8.0°C (18°F) [RH = 38%]
Pressure (altimeter): 29.95 inches Hg (1014.3 mb)
Winds: from the NE (50 degrees) at 6 MPH (5 knots; 2.6 m/s)
Visibility: 10 or more miles (16+ km)
Ceiling: at least 12,000 feet AGL
Clouds: sky clear below 12,000 feet AGL
Weather: automated observation with no human augmentation;
there may or may not be significant weather present at this time

METAR text: KMNH 202154Z AUTO 00000KT 10SM CLR 07/M10 A2995 RMK AO2
Conditions at: KMNH (MONUMENT/ELBERT , CO, US) observed 2154 UTC 20 December 2014
Temperature: 7.0°C (45°F)
Dewpoint: -10.0°C (14°F) [RH = 29%]
Pressure (altimeter): 29.95 inches Hg (1014.3 mb)
Winds: calm
Visibility: 10 or more miles (16+ km)
Ceiling: at least 12,000 feet AGL
Clouds: sky clear below 12,000 feet AGL
Weather: automated observation with no human augmentation;
there may or may not be significant weather present at this time

METAR text: KMNH 202134Z AUTO 06003KT 10SM CLR 06/M10 A2994 RMK AO2
Conditions at: KMNH (MONUMENT/ELBERT , CO, US) observed 2134 UTC 20 December 2014
Temperature: 6.0°C (43°F)
Dewpoint: -10.0°C (14°F) [RH = 31%]
Pressure (altimeter): 29.94 inches Hg (1014.0 mb)
Winds: from the ENE (60 degrees) at 3 MPH (3 knots; 1.6 m/s)
Visibility: 10 or more miles (16+ km)
Ceiling: at least 12,000 feet AGL
Clouds: sky clear below 12,000 feet AGL
Weather: automated observation with no human augmentation;
there may or may not be significant weather present at this time

METAR text: KMNH 202114Z AUTO 03003KT 10SM CLR 07/M09 A2994 RMK AO2
Conditions at: KMNH (MONUMENT/ELBERT , CO, US) observed 2114 UTC 20 December 2014
Temperature: 7.0°C (45°F)
Dewpoint: -9.0°C (16°F) [RH = 31%]
Pressure (altimeter): 29.94 inches Hg (1014.0 mb)
Winds: from the NNE (30 degrees) at 3 MPH (3 knots; 1.6 m/s)
Visibility: 10 or more miles (16+ km)
Ceiling: at least 12,000 feet AGL
Clouds: sky clear below 12,000 feet AGL
Weather: automated observation with no human augmentation;
there may or may not be significant weather present at this time

METAR text: KMNH 202054Z AUTO 00000KT 10SM CLR 07/M10 A2994 RMK AO2
Conditions at: KMNH (MONUMENT/ELBERT , CO, US) observed 2054 UTC 20 December 2014
Temperature: 7.0°C (45°F)
Dewpoint: -10.0°C (14°F) [RH = 29%]
Pressure (altimeter): 29.94 inches Hg (1014.0 mb)
Winds: calm
Visibility: 10 or more miles (16+ km)
Ceiling: at least 12,000 feet AGL
Clouds: sky clear below 12,000 feet AGL
Weather: automated observation with no human augmentation;
there may or may not be significant weather present at this time

METAR text: KMNH 202033Z AUTO 03006KT 10SM CLR 07/M08 A2995 RMK AO2
Conditions at: KMNH (MONUMENT/ELBERT , CO, US) observed 2033 UTC 20 December 2014
Temperature: 7.0°C (45°F)
Dewpoint: -8.0°C (18°F) [RH = 33%]
Pressure (altimeter): 29.95 inches Hg (1014.3 mb)
Winds: from the NNE (30 degrees) at 7 MPH (6 knots; 3.1 m/s)
Visibility: 10 or more miles (16+ km)
Ceiling: at least 12,000 feet AGL
Clouds: sky clear below 12,000 feet AGL
Weather: automated observation with no human augmentation;
there may or may not be significant weather present at this time

METAR text: KMNH 202014Z AUTO 35007KT 10SM CLR 07/M08 A2995 RMK AO2
Conditions at: KMNH (MONUMENT/ELBERT , CO, US) observed 2014 UTC 20 December 2014
Temperature: 7.0°C (45°F)
Dewpoint: -8.0°C (18°F) [RH = 33%]
Pressure (altimeter): 29.95 inches Hg (1014.3 mb)
Winds: from the N (350 degrees) at 8 MPH (7 knots; 3.6 m/s)
Visibility: 10 or more miles (16+ km)
Ceiling: at least 12,000 feet AGL
Clouds: sky clear below 12,000 feet AGL
Weather: automated observation with no human augmentation;
there may or may not be significant weather present at this time

METAR text: KMNH 201954Z AUTO 33003KT 10SM CLR 07/M09 A2995 RMK AO2
Conditions at: KMNH (MONUMENT/ELBERT , CO, US) observed 1954 UTC 20 December 2014
Temperature: 7.0°C (45°F)
Dewpoint: -9.0°C (16°F) [RH = 31%]
Pressure (altimeter): 29.95 inches Hg (1014.3 mb)
Winds: from the NNW (330 degrees) at 3 MPH (3 knots; 1.6 m/s)
Visibility: 10 or more miles (16+ km)
Ceiling: at least 12,000 feet AGL
Clouds: sky clear below 12,000 feet AGL
Weather: automated observation with no human augmentation;
there may or may not be significant weather present at this time

METAR text: KMNH 201934Z AUTO 26004KT 10SM CLR 07/M09 A2997 RMK AO2
Conditions at: KMNH (MONUMENT/ELBERT , CO, US) observed 1934 UTC 20 December 2014
Temperature: 7.0°C (45°F)
Dewpoint: -9.0°C (16°F) [RH = 31%]
Pressure (altimeter): 29.97 inches Hg (1015.0 mb)
Winds: from the W (260 degrees) at 5 MPH (4 knots; 2.1 m/s)
Visibility: 10 or more miles (16+ km)
Ceiling: at least 12,000 feet AGL
Clouds: sky clear below 12,000 feet AGL
Weather: automated observation with no human augmentation;
there may or may not be significant weather present at this time

METAR text: KMNH 201914Z AUTO 28006KT 10SM CLR 06/M08 A2997 RMK AO2
Conditions at: KMNH (MONUMENT/ELBERT , CO, US) observed 1914 UTC 20 December 2014
Temperature: 6.0°C (43°F)
Dewpoint: -8.0°C (18°F) [RH = 36%]
Pressure (altimeter): 29.97 inches Hg (1015.0 mb)
Winds: from the W (280 degrees) at 7 MPH (6 knots; 3.1 m/s)
Visibility: 10 or more miles (16+ km)
Ceiling: at least 12,000 feet AGL
Clouds: sky clear below 12,000 feet AGL
Weather: automated observation with no human augmentation;
there may or may not be significant weather present at this time

METAR text: KMNH 201854Z AUTO 27007KT 10SM CLR 06/M08 A2999 RMK AO2
Conditions at: KMNH (MONUMENT/ELBERT , CO, US) observed 1854 UTC 20 December 2014
Temperature: 6.0°C (43°F)
Dewpoint: -8.0°C (18°F) [RH = 36%]
Pressure (altimeter): 29.99 inches Hg (1015.7 mb)
Winds: from the W (270 degrees) at 8 MPH (7 knots; 3.6 m/s)
Visibility: 10 or more miles (16+ km)
Ceiling: at least 12,000 feet AGL
Clouds: sky clear below 12,000 feet AGL
Weather: automated observation with no human augmentation;
there may or may not be significant weather present at this time

METAR text: KMNH 201834Z AUTO 28006KT 10SM CLR 06/M09 A2999 RMK AO2
Conditions at: KMNH (MONUMENT/ELBERT , CO, US) observed 1834 UTC 20 December 2014
Temperature: 6.0°C (43°F)
Dewpoint: -9.0°C (16°F) [RH = 33%]
Pressure (altimeter): 29.99 inches Hg (1015.7 mb)
Winds: from the W (280 degrees) at 7 MPH (6 knots; 3.1 m/s)
Visibility: 10 or more miles (16+ km)
Ceiling: at least 12,000 feet AGL
Clouds: sky clear below 12,000 feet AGL
Weather: automated observation with no human augmentation;
there may or may not be significant weather present at this time

METAR text: KMNH 201814Z AUTO 25005KT 10SM SCT120 06/M09 A3000 RMK AO2
Conditions at: KMNH (MONUMENT/ELBERT , CO, US) observed 1814 UTC 20 December 2014
Temperature: 6.0°C (43°F)
Dewpoint: -9.0°C (16°F) [RH = 33%]
Pressure (altimeter): 30.00 inches Hg (1016.0 mb)
Winds: from the WSW (250 degrees) at 6 MPH (5 knots; 2.6 m/s)
Visibility: 10 or more miles (16+ km)
Ceiling: at least 12,000 feet AGL
Clouds: scattered clouds at 12000 feet AGL
Weather: automated observation with no human augmentation;
there may or may not be significant weather present at this time

METAR text: KMNH 201754Z AUTO 25005KT 10SM BKN110 05/M08 A3001 RMK AO2
Conditions at: KMNH (MONUMENT/ELBERT , CO, US) observed 1754 UTC 20 December 2014
Temperature: 5.0°C (41°F)
Dewpoint: -8.0°C (18°F) [RH = 38%]
Pressure (altimeter): 30.01 inches Hg (1016.3 mb)
Winds: from the WSW (250 degrees) at 6 MPH (5 knots; 2.6 m/s)
Visibility: 10 or more miles (16+ km)
Ceiling: 11000 feet AGL
Clouds: broken clouds at 11000 feet AGL
Weather: automated observation with no human augmentation;
there may or may not be significant weather present at this time

METAR text: KMNH 201733Z AUTO 22003KT 10SM BKN090 OVC120 05/M08 A3002 RMK AO2
Conditions at: KMNH (MONUMENT/ELBERT , CO, US) observed 1733 UTC 20 December 2014
Temperature: 5.0°C (41°F)
Dewpoint: -8.0°C (18°F) [RH = 38%]
Pressure (altimeter): 30.02 inches Hg (1016.7 mb)
Winds: from the SW (220 degrees) at 3 MPH (3 knots; 1.6 m/s)
Visibility: 10 or more miles (16+ km)
Ceiling: 9000 feet AGL
Clouds: broken clouds at 9000 feet AGL
overcast cloud deck at 12000 feet AGL
Weather: automated observation with no human augmentation;
there may or may not be significant weather present at this time

METAR text: KMNH 201714Z AUTO 22005KT 10SM BKN080 OVC090 04/M07 A3002 RMK AO2
Conditions at: KMNH (MONUMENT/ELBERT , CO, US) observed 1714 UTC 20 December 2014
Temperature: 4.0°C (39°F)
Dewpoint: -7.0°C (19°F) [RH = 44%]
Pressure (altimeter): 30.02 inches Hg (1016.7 mb)
Winds: from the SW (220 degrees) at 6 MPH (5 knots; 2.6 m/s)
Visibility: 10 or more miles (16+ km)
Ceiling: 8000 feet AGL
Clouds: broken clouds at 8000 feet AGL
overcast cloud deck at 9000 feet AGL
Weather: automated observation with no human augmentation;
there may or may not be significant weather present at this time

METAR text: KMNH 201654Z AUTO 20004KT 10SM OVC090 03/M07 A3002 RMK AO2
Conditions at: KMNH (MONUMENT/ELBERT , CO, US) observed 1654 UTC 20 December 2014
Temperature: 3.0°C (37°F)
Dewpoint: -7.0°C (19°F) [RH = 48%]
Pressure (altimeter): 30.02 inches Hg (1016.7 mb)
Winds: from the SSW (200 degrees) at 5 MPH (4 knots; 2.1 m/s)
Visibility: 10 or more miles (16+ km)
Ceiling: 9000 feet AGL
Clouds: overcast cloud deck at 9000 feet AGL
Weather: automated observation with no human augmentation;
there may or may not be significant weather present at this time

METAR text: KMNH 201634Z AUTO 22006KT 10SM OVC100 03/M08 A3002 RMK AO2
Conditions at: KMNH (MONUMENT/ELBERT , CO, US) observed 1634 UTC 20 December 2014
Temperature: 3.0°C (37°F)
Dewpoint: -8.0°C (18°F) [RH = 44%]
Pressure (altimeter): 30.02 inches Hg (1016.7 mb)
Winds: from the SW (220 degrees) at 7 MPH (6 knots; 3.1 m/s)
Visibility: 10 or more miles (16+ km)
Ceiling: 10000 feet AGL
Clouds: overcast cloud deck at 10000 feet AGL
Weather: automated observation with no human augmentation;
there may or may not be significant weather present at this time

METAR text: KMNH 201614Z AUTO 21004KT 10SM BKN100 BKN120 02/M07 A3001 RMK AO2
Conditions at: KMNH (MONUMENT/ELBERT , CO, US) observed 1614 UTC 20 December 2014
Temperature: 2.0°C (36°F)
Dewpoint: -7.0°C (19°F) [RH = 51%]
Pressure (altimeter): 30.01 inches Hg (1016.3 mb)
Winds: from the SSW (210 degrees) at 5 MPH (4 knots; 2.1 m/s)
Visibility: 10 or more miles (16+ km)
Ceiling: 10000 feet AGL
Clouds: broken clouds at 10000 feet AGL
broken clouds at 12000 feet AGL
Weather: automated observation with no human augmentation;
there may or may not be significant weather present at this time

METAR text: KMNH 201554Z AUTO 21005KT 10SM CLR 03/M08 A3001 RMK AO2
Conditions at: KMNH (MONUMENT/ELBERT , CO, US) observed 1554 UTC 20 December 2014
Temperature: 3.0°C (37°F)
Dewpoint: -8.0°C (18°F) [RH = 44%]
Pressure (altimeter): 30.01 inches Hg (1016.3 mb)
Winds: from the SSW (210 degrees) at 6 MPH (5 knots; 2.6 m/s)
Visibility: 10 or more miles (16+ km)
Ceiling: at least 12,000 feet AGL
Clouds: sky clear below 12,000 feet AGL
Weather: automated observation with no human augmentation;
there may or may not be significant weather present at this time

METAR text: KMNH 201534Z AUTO 21007KT 10SM CLR 01/M09 A3001 RMK AO2
Conditions at: KMNH (MONUMENT/ELBERT , CO, US) observed 1534 UTC 20 December 2014
Temperature: 1.0°C (34°F)
Dewpoint: -9.0°C (16°F) [RH = 47%]
Pressure (altimeter): 30.01 inches Hg (1016.3 mb)
Winds: from the SSW (210 degrees) at 8 MPH (7 knots; 3.6 m/s)
Visibility: 10 or more miles (16+ km)
Ceiling: at least 12,000 feet AGL
Clouds: sky clear below 12,000 feet AGL
Weather: automated observation with no human augmentation;
there may or may not be significant weather present at this time

METAR text: KMNH 201514Z AUTO 21006KT 10SM CLR M01/M09 A3001 RMK AO2
Conditions at: KMNH (MONUMENT/ELBERT , CO, US) observed 1514 UTC 20 December 2014
Temperature: -1.0°C (30°F)
Dewpoint: -9.0°C (16°F) [RH = 55%]
Pressure (altimeter): 30.01 inches Hg (1016.3 mb)
Winds: from the SSW (210 degrees) at 7 MPH (6 knots; 3.1 m/s)
Visibility: 10 or more miles (16+ km)
Ceiling: at least 12,000 feet AGL
Clouds: sky clear below 12,000 feet AGL
Weather: automated observation with no human augmentation;
there may or may not be significant weather present at this time

METAR text: KMNH 201454Z AUTO 20007KT 10SM CLR M02/M09 A3001 RMK AO2
Conditions at: KMNH (MONUMENT/ELBERT , CO, US) observed 1454 UTC 20 December 2014
Temperature: -2.0°C (28°F)
Dewpoint: -9.0°C (16°F) [RH = 59%]
Pressure (altimeter): 30.01 inches Hg (1016.3 mb)
Winds: from the SSW (200 degrees) at 8 MPH (7 knots; 3.6 m/s)
Visibility: 10 or more miles (16+ km)
Ceiling: at least 12,000 feet AGL
Clouds: sky clear below 12,000 feet AGL
Weather: automated observation with no human augmentation;
there may or may not be significant weather present at this time

METAR text: KMNH 201434Z AUTO 22008KT 10SM CLR M01/M10 A3001 RMK AO2
Conditions at: KMNH (MONUMENT/ELBERT , CO, US) observed 1434 UTC 20 December 2014
Temperature: -1.0°C (30°F)
Dewpoint: -10.0°C (14°F) [RH = 50%]
Pressure (altimeter): 30.01 inches Hg (1016.3 mb)
Winds: from the SW (220 degrees) at 9 MPH (8 knots; 4.2 m/s)
Visibility: 10 or more miles (16+ km)
Ceiling: at least 12,000 feet AGL
Clouds: sky clear below 12,000 feet AGL
Weather: automated observation with no human augmentation;
there may or may not be significant weather present at this time

METAR text: KMNH 201414Z AUTO 21007KT 10SM CLR M02/M10 A3001 RMK AO2
Conditions at: KMNH (MONUMENT/ELBERT , CO, US) observed 1414 UTC 20 December 2014
Temperature: -2.0°C (28°F)
Dewpoint: -10.0°C (14°F) [RH = 54%]
Pressure (altimeter): 30.01 inches Hg (1016.3 mb)
Winds: from the SSW (210 degrees) at 8 MPH (7 knots; 3.6 m/s)
Visibility: 10 or more miles (16+ km)
Ceiling: at least 12,000 feet AGL
Clouds: sky clear below 12,000 feet AGL
Weather: automated observation with no human augmentation;
there may or may not be significant weather present at this time

METAR text: KMNH 201354Z AUTO 22009KT 10SM CLR M01/M10 A3001 RMK AO2
Conditions at: KMNH (MONUMENT/ELBERT , CO, US) observed 1354 UTC 20 December 2014
Temperature: -1.0°C (30°F)
Dewpoint: -10.0°C (14°F) [RH = 50%]
Pressure (altimeter): 30.01 inches Hg (1016.3 mb)
Winds: from the SW (220 degrees) at 10 MPH (9 knots; 4.7 m/s)
Visibility: 10 or more miles (16+ km)
Ceiling: at least 12,000 feet AGL
Clouds: sky clear below 12,000 feet AGL
Weather: automated observation with no human augmentation;
there may or may not be significant weather present at this time

METAR text: KMNH 201334Z AUTO 23009KT 10SM CLR M01/M10 A3000 RMK AO2
Conditions at: KMNH (MONUMENT/ELBERT , CO, US) observed 1334 UTC 20 December 2014
Temperature: -1.0°C (30°F)
Dewpoint: -10.0°C (14°F) [RH = 50%]
Pressure (altimeter): 30.00 inches Hg (1016.0 mb)
Winds: from the SW (230 degrees) at 10 MPH (9 knots; 4.7 m/s)
Visibility: 10 or more miles (16+ km)
Ceiling: at least 12,000 feet AGL
Clouds: sky clear below 12,000 feet AGL
Weather: automated observation with no human augmentation;
there may or may not be significant weather present at this time

METAR text: KMNH 201314Z AUTO 23007KT 10SM CLR M01/M10 A3000 RMK AO2
Conditions at: KMNH (MONUMENT/ELBERT , CO, US) observed 1314 UTC 20 December 2014
Temperature: -1.0°C (30°F)
Dewpoint: -10.0°C (14°F) [RH = 50%]
Pressure (altimeter): 30.00 inches Hg (1016.0 mb)
Winds: from the SW (230 degrees) at 8 MPH (7 knots; 3.6 m/s)
Visibility: 10 or more miles (16+ km)
Ceiling: at least 12,000 feet AGL
Clouds: sky clear below 12,000 feet AGL
Weather: automated observation with no human augmentation;
there may or may not be significant weather present at this time

METAR text: KMNH 201254Z AUTO 22008KT 10SM CLR M03/M10 A3000 RMK AO2
Conditions at: KMNH (MONUMENT/ELBERT , CO, US) observed 1254 UTC 20 December 2014
Temperature: -3.0°C (27°F)
Dewpoint: -10.0°C (14°F) [RH = 58%]
Pressure (altimeter): 30.00 inches Hg (1016.0 mb)
Winds: from the SW (220 degrees) at 9 MPH (8 knots; 4.2 m/s)
Visibility: 10 or more miles (16+ km)
Ceiling: at least 12,000 feet AGL
Clouds: sky clear below 12,000 feet AGL
Weather: automated observation with no human augmentation;
there may or may not be significant weather present at this time

METAR text: KMNH 201234Z AUTO 21008KT 10SM CLR M03/M10 A3000 RMK AO2
Conditions at: KMNH (MONUMENT/ELBERT , CO, US) observed 1234 UTC 20 December 2014
Temperature: -3.0°C (27°F)
Dewpoint: -10.0°C (14°F) [RH = 58%]
Pressure (altimeter): 30.00 inches Hg (1016.0 mb)
Winds: from the SSW (210 degrees) at 9 MPH (8 knots; 4.2 m/s)
Visibility: 10 or more miles (16+ km)
Ceiling: at least 12,000 feet AGL
Clouds: sky clear below 12,000 feet AGL
Weather: automated observation with no human augmentation;
there may or may not be significant weather present at this time

METAR text: KMNH 201214Z AUTO 21007KT 10SM CLR M02/M10 A3000 RMK AO2
Conditions at: KMNH (MONUMENT/ELBERT , CO, US) observed 1214 UTC 20 December 2014
Temperature: -2.0°C (28°F)
Dewpoint: -10.0°C (14°F) [RH = 54%]
Pressure (altimeter): 30.00 inches Hg (1016.0 mb)
Winds: from the SSW (210 degrees) at 8 MPH (7 knots; 3.6 m/s)
Visibility: 10 or more miles (16+ km)
Ceiling: at least 12,000 feet AGL
Clouds: sky clear below 12,000 feet AGL
Weather: automated observation with no human augmentation;
there may or may not be significant weather present at this time

METAR text: KMNH 201154Z AUTO 22010KT 10SM CLR M02/M10 A3000 RMK AO2
Conditions at: KMNH (MONUMENT/ELBERT , CO, US) observed 1154 UTC 20 December 2014
Temperature: -2.0°C (28°F)
Dewpoint: -10.0°C (14°F) [RH = 54%]
Pressure (altimeter): 30.00 inches Hg (1016.0 mb)
Winds: from the SW (220 degrees) at 12 MPH (10 knots; 5.2 m/s)
Visibility: 10 or more miles (16+ km)
Ceiling: at least 12,000 feet AGL
Clouds: sky clear below 12,000 feet AGL
Weather: automated observation with no human augmentation;
there may or may not be significant weather present at this time

METAR text: KMNH 201134Z AUTO 22008KT 10SM CLR M02/M10 A3000 RMK AO2
Conditions at: KMNH (MONUMENT/ELBERT , CO, US) observed 1134 UTC 20 December 2014
Temperature: -2.0°C (28°F)
Dewpoint: -10.0°C (14°F) [RH = 54%]
Pressure (altimeter): 30.00 inches Hg (1016.0 mb)
Winds: from the SW (220 degrees) at 9 MPH (8 knots; 4.2 m/s)
Visibility: 10 or more miles (16+ km)
Ceiling: at least 12,000 feet AGL
Clouds: sky clear below 12,000 feet AGL
Weather: automated observation with no human augmentation;
there may or may not be significant weather present at this time

METAR text: KMNH 201114Z AUTO 22008KT 10SM CLR M03/M10 A3000 RMK AO2
Conditions at: KMNH (MONUMENT/ELBERT , CO, US) observed 1114 UTC 20 December 2014
Temperature: -3.0°C (27°F)
Dewpoint: -10.0°C (14°F) [RH = 58%]
Pressure (altimeter): 30.00 inches Hg (1016.0 mb)
Winds: from the SW (220 degrees) at 9 MPH (8 knots; 4.2 m/s)
Visibility: 10 or more miles (16+ km)
Ceiling: at least 12,000 feet AGL
Clouds: sky clear below 12,000 feet AGL
Weather: automated observation with no human augmentation;
there may or may not be significant weather present at this time

METAR text: KMNH 201054Z AUTO 23006KT 10SM CLR M02/M10 A3000 RMK AO2
Conditions at: KMNH (MONUMENT/ELBERT , CO, US) observed 1054 UTC 20 December 2014
Temperature: -2.0°C (28°F)
Dewpoint: -10.0°C (14°F) [RH = 54%]
Pressure (altimeter): 30.00 inches Hg (1016.0 mb)
Winds: from the SW (230 degrees) at 7 MPH (6 knots; 3.1 m/s)
Visibility: 10 or more miles (16+ km)
Ceiling: at least 12,000 feet AGL
Clouds: sky clear below 12,000 feet AGL
Weather: automated observation with no human augmentation;
there may or may not be significant weather present at this time

METAR text: KMNH 201034Z AUTO 23008KT 10SM CLR M02/M10 A3001 RMK AO2
Conditions at: KMNH (MONUMENT/ELBERT , CO, US) observed 1034 UTC 20 December 2014
Temperature: -2.0°C (28°F)
Dewpoint: -10.0°C (14°F) [RH = 54%]
Pressure (altimeter): 30.01 inches Hg (1016.3 mb)
Winds: from the SW (230 degrees) at 9 MPH (8 knots; 4.2 m/s)
Visibility: 10 or more miles (16+ km)
Ceiling: at least 12,000 feet AGL
Clouds: sky clear below 12,000 feet AGL
Weather: automated observation with no human augmentation;
there may or may not be significant weather present at this time

METAR text: KMNH 201013Z AUTO 24009KT 10SM CLR M03/M10 A3001 RMK AO2
Conditions at: KMNH (MONUMENT/ELBERT , CO, US) observed 1013 UTC 20 December 2014
Temperature: -3.0°C (27°F)
Dewpoint: -10.0°C (14°F) [RH = 58%]
Pressure (altimeter): 30.01 inches Hg (1016.3 mb)
Winds: from the WSW (240 degrees) at 10 MPH (9 knots; 4.7 m/s)
Visibility: 10 or more miles (16+ km)
Ceiling: at least 12,000 feet AGL
Clouds: sky clear below 12,000 feet AGL
Weather: automated observation with no human augmentation;
there may or may not be significant weather present at this time

METAR text: KMNH 200954Z AUTO 24009KT 10SM CLR M03/M10 A3001 RMK AO2
Conditions at: KMNH (MONUMENT/ELBERT , CO, US) observed 0954 UTC 20 December 2014
Temperature: -3.0°C (27°F)
Dewpoint: -10.0°C (14°F) [RH = 58%]
Pressure (altimeter): 30.01 inches Hg (1016.3 mb)
Winds: from the WSW (240 degrees) at 10 MPH (9 knots; 4.7 m/s)
Visibility: 10 or more miles (16+ km)
Ceiling: at least 12,000 feet AGL
Clouds: sky clear below 12,000 feet AGL
Weather: automated observation with no human augmentation;
there may or may not be significant weather present at this time

METAR text: KMNH 200934Z AUTO 24008KT 10SM CLR M03/M10 A3002 RMK AO2
Conditions at: KMNH (MONUMENT/ELBERT , CO, US) observed 0934 UTC 20 December 2014
Temperature: -3.0°C (27°F)
Dewpoint: -10.0°C (14°F) [RH = 58%]
Pressure (altimeter): 30.02 inches Hg (1016.7 mb)
Winds: from the WSW (240 degrees) at 9 MPH (8 knots; 4.2 m/s)
Visibility: 10 or more miles (16+ km)
Ceiling: at least 12,000 feet AGL
Clouds: sky clear below 12,000 feet AGL
Weather: automated observation with no human augmentation;
there may or may not be significant weather present at this time

METAR text: KMNH 200914Z AUTO 22009KT 10SM CLR M03/M10 A3001 RMK AO2
Conditions at: KMNH (MONUMENT/ELBERT , CO, US) observed 0914 UTC 20 December 2014
Temperature: -3.0°C (27°F)
Dewpoint: -10.0°C (14°F) [RH = 58%]
Pressure (altimeter): 30.01 inches Hg (1016.3 mb)
Winds: from the SW (220 degrees) at 10 MPH (9 knots; 4.7 m/s)
Visibility: 10 or more miles (16+ km)
Ceiling: at least 12,000 feet AGL
Clouds: sky clear below 12,000 feet AGL
Weather: automated observation with no human augmentation;
there may or may not be significant weather present at this time

METAR text: KMNH 200854Z AUTO 23007KT 10SM CLR M04/M10 A3001 RMK AO2
Conditions at: KMNH (MONUMENT/ELBERT , CO, US) observed 0854 UTC 20 December 2014
Temperature: -4.0°C (25°F)
Dewpoint: -10.0°C (14°F) [RH = 63%]
Pressure (altimeter): 30.01 inches Hg (1016.3 mb)
Winds: from the SW (230 degrees) at 8 MPH (7 knots; 3.6 m/s)
Visibility: 10 or more miles (16+ km)
Ceiling: at least 12,000 feet AGL
Clouds: sky clear below 12,000 feet AGL
Weather: automated observation with no human augmentation;
there may or may not be significant weather present at this time

METAR text: KMNH 200834Z AUTO 23008KT 10SM CLR M04/M10 A3001 RMK AO2
Conditions at: KMNH (MONUMENT/ELBERT , CO, US) observed 0834 UTC 20 December 2014
Temperature: -4.0°C (25°F)
Dewpoint: -10.0°C (14°F) [RH = 63%]
Pressure (altimeter): 30.01 inches Hg (1016.3 mb)
Winds: from the SW (230 degrees) at 9 MPH (8 knots; 4.2 m/s)
Visibility: 10 or more miles (16+ km)
Ceiling: at least 12,000 feet AGL
Clouds: sky clear below 12,000 feet AGL
Weather: automated observation with no human augmentation;
there may or may not be significant weather present at this time

METAR text: KMNH 200814Z AUTO 22007KT 10SM CLR M02/M10 A3000 RMK AO2
Conditions at: KMNH (MONUMENT/ELBERT , CO, US) observed 0814 UTC 20 December 2014
Temperature: -2.0°C (28°F)
Dewpoint: -10.0°C (14°F) [RH = 54%]
Pressure (altimeter): 30.00 inches Hg (1016.0 mb)
Winds: from the SW (220 degrees) at 8 MPH (7 knots; 3.6 m/s)
Visibility: 10 or more miles (16+ km)
Ceiling: at least 12,000 feet AGL
Clouds: sky clear below 12,000 feet AGL
Weather: automated observation with no human augmentation;
there may or may not be significant weather present at this time

METAR text: KMNH 200754Z AUTO 22008KT 10SM CLR M04/M10 A3000 RMK AO2
Conditions at: KMNH (MONUMENT/ELBERT , CO, US) observed 0754 UTC 20 December 2014
Temperature: -4.0°C (25°F)
Dewpoint: -10.0°C (14°F) [RH = 63%]
Pressure (altimeter): 30.00 inches Hg (1016.0 mb)
Winds: from the SW (220 degrees) at 9 MPH (8 knots; 4.2 m/s)
Visibility: 10 or more miles (16+ km)
Ceiling: at least 12,000 feet AGL
Clouds: sky clear below 12,000 feet AGL
Weather: automated observation with no human augmentation;
there may or may not be significant weather present at this time

METAR text: KMNH 200734Z AUTO 21006KT 10SM CLR M03/M09 A3000 RMK AO2
Conditions at: KMNH (MONUMENT/ELBERT , CO, US) observed 0734 UTC 20 December 2014
Temperature: -3.0°C (27°F)
Dewpoint: -9.0°C (16°F) [RH = 63%]
Pressure (altimeter): 30.00 inches Hg (1016.0 mb)
Winds: from the SSW (210 degrees) at 7 MPH (6 knots; 3.1 m/s)
Visibility: 10 or more miles (16+ km)
Ceiling: at least 12,000 feet AGL
Clouds: sky clear below 12,000 feet AGL
Weather: automated observation with no human augmentation;
there may or may not be significant weather present at this time

METAR text: KMNH 200714Z AUTO 21009KT 10SM CLR M03/M09 A3000 RMK AO2
Conditions at: KMNH (MONUMENT/ELBERT , CO, US) observed 0714 UTC 20 December 2014
Temperature: -3.0°C (27°F)
Dewpoint: -9.0°C (16°F) [RH = 63%]
Pressure (altimeter): 30.00 inches Hg (1016.0 mb)
Winds: from the SSW (210 degrees) at 10 MPH (9 knots; 4.7 m/s)
Visibility: 10 or more miles (16+ km)
Ceiling: at least 12,000 feet AGL
Clouds: sky clear below 12,000 feet AGL
Weather: automated observation with no human augmentation;
there may or may not be significant weather present at this time

METAR text: KMNH 200653Z AUTO 21007KT 10SM CLR M04/M08 A3000 RMK AO2
Conditions at: KMNH (MONUMENT/ELBERT , CO, US) observed 0653 UTC 20 December 2014
Temperature: -4.0°C (25°F)
Dewpoint: -8.0°C (18°F) [RH = 74%]
Pressure (altimeter): 30.00 inches Hg (1016.0 mb)
Winds: from the SSW (210 degrees) at 8 MPH (7 knots; 3.6 m/s)
Visibility: 10 or more miles (16+ km)
Ceiling: at least 12,000 feet AGL
Clouds: sky clear below 12,000 feet AGL
Weather: automated observation with no human augmentation;
there may or may not be significant weather present at this time

METAR text: KMNH 200633Z AUTO 20007KT 10SM CLR M03/M08 A3001 RMK AO2
Conditions at: KMNH (MONUMENT/ELBERT , CO, US) observed 0633 UTC 20 December 2014
Temperature: -3.0°C (27°F)
Dewpoint: -8.0°C (18°F) [RH = 68%]
Pressure (altimeter): 30.01 inches Hg (1016.3 mb)
Winds: from the SSW (200 degrees) at 8 MPH (7 knots; 3.6 m/s)
Visibility: 10 or more miles (16+ km)
Ceiling: at least 12,000 feet AGL
Clouds: sky clear below 12,000 feet AGL
Weather: automated observation with no human augmentation;
there may or may not be significant weather present at this time

METAR text: KMNH 200613Z AUTO 20008KT 10SM CLR M03/M08 A3001 RMK AO2
Conditions at: KMNH (MONUMENT/ELBERT , CO, US) observed 0613 UTC 20 December 2014
Temperature: -3.0°C (27°F)
Dewpoint: -8.0°C (18°F) [RH = 68%]
Pressure (altimeter): 30.01 inches Hg (1016.3 mb)
Winds: from the SSW (200 degrees) at 9 MPH (8 knots; 4.2 m/s)
Visibility: 10 or more miles (16+ km)
Ceiling: at least 12,000 feet AGL
Clouds: sky clear below 12,000 feet AGL
Weather: automated observation with no human augmentation;
there may or may not be significant weather present at this time

METAR text: KMNH 200554Z AUTO 20007KT 10SM CLR M03/M08 A3002 RMK AO2
Conditions at: KMNH (MONUMENT/ELBERT , CO, US) observed 0554 UTC 20 December 2014
Temperature: -3.0°C (27°F)
Dewpoint: -8.0°C (18°F) [RH = 68%]
Pressure (altimeter): 30.02 inches Hg (1016.7 mb)
Winds: from the SSW (200 degrees) at 8 MPH (7 knots; 3.6 m/s)
Visibility: 10 or more miles (16+ km)
Ceiling: at least 12,000 feet AGL
Clouds: sky clear below 12,000 feet AGL
Weather: automated observation with no human augmentation;
there may or may not be significant weather present at this time

METAR text: KMNH 200534Z AUTO 20008KT 10SM CLR M03/M08 A3002 RMK AO2
Conditions at: KMNH (MONUMENT/ELBERT , CO, US) observed 0534 UTC 20 December 2014
Temperature: -3.0°C (27°F)
Dewpoint: -8.0°C (18°F) [RH = 68%]
Pressure (altimeter): 30.02 inches Hg (1016.7 mb)
Winds: from the SSW (200 degrees) at 9 MPH (8 knots; 4.2 m/s)
Visibility: 10 or more miles (16+ km)
Ceiling: at least 12,000 feet AGL
Clouds: sky clear below 12,000 feet AGL
Weather: automated observation with no human augmentation;
there may or may not be significant weather present at this time

METAR text: KMNH 200514Z AUTO 20009KT 10SM CLR M03/M09 A3002 RMK AO2
Conditions at: KMNH (MONUMENT/ELBERT , CO, US) observed 0514 UTC 20 December 2014
Temperature: -3.0°C (27°F)
Dewpoint: -9.0°C (16°F) [RH = 63%]
Pressure (altimeter): 30.02 inches Hg (1016.7 mb)
Winds: from the SSW (200 degrees) at 10 MPH (9 knots; 4.7 m/s)
Visibility: 10 or more miles (16+ km)
Ceiling: at least 12,000 feet AGL
Clouds: sky clear below 12,000 feet AGL
Weather: automated observation with no human augmentation;
there may or may not be significant weather present at this time

METAR text: KMNH 200454Z AUTO 20010KT 10SM CLR M03/M09 A3002 RMK AO2
Conditions at: KMNH (MONUMENT/ELBERT , CO, US) observed 0454 UTC 20 December 2014
Temperature: -3.0°C (27°F)
Dewpoint: -9.0°C (16°F) [RH = 63%]
Pressure (altimeter): 30.02 inches Hg (1016.7 mb)
Winds: from the SSW (200 degrees) at 12 MPH (10 knots; 5.2 m/s)
Visibility: 10 or more miles (16+ km)
Ceiling: at least 12,000 feet AGL
Clouds: sky clear below 12,000 feet AGL
Weather: automated observation with no human augmentation;
there may or may not be significant weather present at this time

METAR text: KMNH 200434Z AUTO 20007KT 10SM CLR M03/M09 A3003 RMK AO2
Conditions at: KMNH (MONUMENT/ELBERT , CO, US) observed 0434 UTC 20 December 2014
Temperature: -3.0°C (27°F)
Dewpoint: -9.0°C (16°F) [RH = 63%]
Pressure (altimeter): 30.03 inches Hg (1017.0 mb)
Winds: from the SSW (200 degrees) at 8 MPH (7 knots; 3.6 m/s)
Visibility: 10 or more miles (16+ km)
Ceiling: at least 12,000 feet AGL
Clouds: sky clear below 12,000 feet AGL
Weather: automated observation with no human augmentation;
there may or may not be significant weather present at this time

METAR text: KMNH 200414Z AUTO 20006KT 10SM CLR M04/M09 A3002 RMK AO2
Conditions at: KMNH (MONUMENT/ELBERT , CO, US) observed 0414 UTC 20 December 2014
Temperature: -4.0°C (25°F)
Dewpoint: -9.0°C (16°F) [RH = 68%]
Pressure (altimeter): 30.02 inches Hg (1016.7 mb)
Winds: from the SSW (200 degrees) at 7 MPH (6 knots; 3.1 m/s)
Visibility: 10 or more miles (16+ km)
Ceiling: at least 12,000 feet AGL
Clouds: sky clear below 12,000 feet AGL
Weather: automated observation with no human augmentation;
there may or may not be significant weather present at this time

METAR text: KMNH 200354Z AUTO 21005KT 10SM CLR M03/M09 A3003 RMK AO2
Conditions at: KMNH (MONUMENT/ELBERT , CO, US) observed 0354 UTC 20 December 2014
Temperature: -3.0°C (27°F)
Dewpoint: -9.0°C (16°F) [RH = 63%]
Pressure (altimeter): 30.03 inches Hg (1017.0 mb)
Winds: from the SSW (210 degrees) at 6 MPH (5 knots; 2.6 m/s)
Visibility: 10 or more miles (16+ km)
Ceiling: at least 12,000 feet AGL
Clouds: sky clear below 12,000 feet AGL
Weather: automated observation with no human augmentation;
there may or may not be significant weather present at this time

METAR text: KMNH 200334Z AUTO 20007KT 10SM CLR M03/M09 A3003 RMK AO2
Conditions at: KMNH (MONUMENT/ELBERT , CO, US) observed 0334 UTC 20 December 2014
Temperature: -3.0°C (27°F)
Dewpoint: -9.0°C (16°F) [RH = 63%]
Pressure (altimeter): 30.03 inches Hg (1017.0 mb)
Winds: from the SSW (200 degrees) at 8 MPH (7 knots; 3.6 m/s)
Visibility: 10 or more miles (16+ km)
Ceiling: at least 12,000 feet AGL
Clouds: sky clear below 12,000 feet AGL
Weather: automated observation with no human augmentation;
there may or may not be significant weather present at this time

METAR text: KMNH 200314Z AUTO 21007KT 10SM CLR M02/M09 A3003 RMK AO2
Conditions at: KMNH (MONUMENT/ELBERT , CO, US) observed 0314 UTC 20 December 2014
Temperature: -2.0°C (28°F)
Dewpoint: -9.0°C (16°F) [RH = 59%]
Pressure (altimeter): 30.03 inches Hg (1017.0 mb)
Winds: from the SSW (210 degrees) at 8 MPH (7 knots; 3.6 m/s)
Visibility: 10 or more miles (16+ km)
Ceiling: at least 12,000 feet AGL
Clouds: sky clear below 12,000 feet AGL
Weather: automated observation with no human augmentation;
there may or may not be significant weather present at this time

METAR text: KMNH 200253Z AUTO 20007KT 10SM CLR M02/M09 A3003 RMK AO2
Conditions at: KMNH (MONUMENT/ELBERT , CO, US) observed 0253 UTC 20 December 2014
Temperature: -2.0°C (28°F)
Dewpoint: -9.0°C (16°F) [RH = 59%]
Pressure (altimeter): 30.03 inches Hg (1017.0 mb)
Winds: from the SSW (200 degrees) at 8 MPH (7 knots; 3.6 m/s)
Visibility: 10 or more miles (16+ km)
Ceiling: at least 12,000 feet AGL
Clouds: sky clear below 12,000 feet AGL
Weather: automated observation with no human augmentation;
there may or may not be significant weather present at this time

METAR text: KMNH 200234Z AUTO 20007KT 10SM CLR M04/M09 A3003 RMK AO2
Conditions at: KMNH (MONUMENT/ELBERT , CO, US) observed 0234 UTC 20 December 2014
Temperature: -4.0°C (25°F)
Dewpoint: -9.0°C (16°F) [RH = 68%]
Pressure (altimeter): 30.03 inches Hg (1017.0 mb)
Winds: from the SSW (200 degrees) at 8 MPH (7 knots; 3.6 m/s)
Visibility: 10 or more miles (16+ km)
Ceiling: at least 12,000 feet AGL
Clouds: sky clear below 12,000 feet AGL
Weather: automated observation with no human augmentation;
there may or may not be significant weather present at this time

METAR text: KMNH 200214Z AUTO 19007KT 10SM CLR M03/M09 A3002 RMK AO2
Conditions at: KMNH (MONUMENT/ELBERT , CO, US) observed 0214 UTC 20 December 2014
Temperature: -3.0°C (27°F)
Dewpoint: -9.0°C (16°F) [RH = 63%]
Pressure (altimeter): 30.02 inches Hg (1016.7 mb)
Winds: from the S (190 degrees) at 8 MPH (7 knots; 3.6 m/s)
Visibility: 10 or more miles (16+ km)
Ceiling: at least 12,000 feet AGL
Clouds: sky clear below 12,000 feet AGL
Weather: automated observation with no human augmentation;
there may or may not be significant weather present at this time

METAR text: KMNH 200154Z AUTO 19010KT 10SM CLR M03/M10 A3002 RMK AO2
Conditions at: KMNH (MONUMENT/ELBERT , CO, US) observed 0154 UTC 20 December 2014
Temperature: -3.0°C (27°F)
Dewpoint: -10.0°C (14°F) [RH = 58%]
Pressure (altimeter): 30.02 inches Hg (1016.7 mb)
Winds: from the S (190 degrees) at 12 MPH (10 knots; 5.2 m/s)
Visibility: 10 or more miles (16+ km)
Ceiling: at least 12,000 feet AGL
Clouds: sky clear below 12,000 feet AGL
Weather: automated observation with no human augmentation;
there may or may not be significant weather present at this time

METAR text: KMNH 200134Z AUTO 20007KT 10SM CLR M03/M10 A3002 RMK AO2
Conditions at: KMNH (MONUMENT/ELBERT , CO, US) observed 0134 UTC 20 December 2014
Temperature: -3.0°C (27°F)
Dewpoint: -10.0°C (14°F) [RH = 58%]
Pressure (altimeter): 30.02 inches Hg (1016.7 mb)
Winds: from the SSW (200 degrees) at 8 MPH (7 knots; 3.6 m/s)
Visibility: 10 or more miles (16+ km)
Ceiling: at least 12,000 feet AGL
Clouds: sky clear below 12,000 feet AGL
Weather: automated observation with no human augmentation;
there may or may not be significant weather present at this time

METAR text: KMNH 200113Z AUTO 21007KT 10SM CLR M03/M10 A3002 RMK AO2
Conditions at: KMNH (MONUMENT/ELBERT , CO, US) observed 0113 UTC 20 December 2014
Temperature: -3.0°C (27°F)
Dewpoint: -10.0°C (14°F) [RH = 58%]
Pressure (altimeter): 30.02 inches Hg (1016.7 mb)
Winds: from the SSW (210 degrees) at 8 MPH (7 knots; 3.6 m/s)
Visibility: 10 or more miles (16+ km)
Ceiling: at least 12,000 feet AGL
Clouds: sky clear below 12,000 feet AGL
Weather: automated observation with no human augmentation;
there may or may not be significant weather present at this time

METAR text: KMNH 200054Z AUTO 20008KT 10SM CLR M03/M10 A3001 RMK AO2
Conditions at: KMNH (MONUMENT/ELBERT , CO, US) observed 0054 UTC 20 December 2014
Temperature: -3.0°C (27°F)
Dewpoint: -10.0°C (14°F) [RH = 58%]
Pressure (altimeter): 30.01 inches Hg (1016.3 mb)
Winds: from the SSW (200 degrees) at 9 MPH (8 knots; 4.2 m/s)
Visibility: 10 or more miles (16+ km)
Ceiling: at least 12,000 feet AGL
Clouds: sky clear below 12,000 feet AGL
Weather: automated observation with no human augmentation;
there may or may not be significant weather present at this time

METAR text: KMNH 200034Z AUTO 19007KT 10SM CLR M04/M10 A3002 RMK AO2
Conditions at: KMNH (MONUMENT/ELBERT , CO, US) observed 0034 UTC 20 December 2014
Temperature: -4.0°C (25°F)
Dewpoint: -10.0°C (14°F) [RH = 63%]
Pressure (altimeter): 30.02 inches Hg (1016.7 mb)
Winds: from the S (190 degrees) at 8 MPH (7 knots; 3.6 m/s)
Visibility: 10 or more miles (16+ km)
Ceiling: at least 12,000 feet AGL
Clouds: sky clear below 12,000 feet AGL
Weather: automated observation with no human augmentation;
there may or may not be significant weather present at this time

METAR text: KMNH 200014Z AUTO 18007KT 10SM CLR M03/M10 A3002 RMK AO2
Conditions at: KMNH (MONUMENT/ELBERT , CO, US) observed 0014 UTC 20 December 2014
Temperature: -3.0°C (27°F)
Dewpoint: -10.0°C (14°F) [RH = 58%]
Pressure (altimeter): 30.02 inches Hg (1016.7 mb)
Winds: from the S (180 degrees) at 8 MPH (7 knots; 3.6 m/s)
Visibility: 10 or more miles (16+ km)
Ceiling: at least 12,000 feet AGL
Clouds: sky clear below 12,000 feet AGL
Weather: automated observation with no human augmentation;
there may or may not be significant weather present at this time

METAR text: KMNH 192354Z AUTO 16010KT 10SM CLR 00/M11 A3002 RMK AO2
Conditions at: KMNH (MONUMENT/ELBERT , CO, US) observed 2354 UTC 19 December 2014
Temperature: 0.0°C (32°F)
Dewpoint: -11.0°C (12°F) [RH = 43%]
Pressure (altimeter): 30.02 inches Hg (1016.7 mb)
Winds: from the SSE (160 degrees) at 12 MPH (10 knots; 5.2 m/s)
Visibility: 10 or more miles (16+ km)
Ceiling: at least 12,000 feet AGL
Clouds: sky clear below 12,000 feet AGL
Weather: automated observation with no human augmentation;
there may or may not be significant weather present at this time

METAR text: KMNH 192334Z AUTO 15006KT 10SM CLR 00/M11 A3001 RMK AO2
Conditions at: KMNH (MONUMENT/ELBERT , CO, US) observed 2334 UTC 19 December 2014
Temperature: 0.0°C (32°F)
Dewpoint: -11.0°C (12°F) [RH = 43%]
Pressure (altimeter): 30.01 inches Hg (1016.3 mb)
Winds: from the SSE (150 degrees) at 7 MPH (6 knots; 3.1 m/s)
Visibility: 10 or more miles (16+ km)
Ceiling: at least 12,000 feet AGL
Clouds: sky clear below 12,000 feet AGL
Weather: automated observation with no human augmentation;
there may or may not be significant weather present at this time

METAR text: KMNH 192314Z AUTO 13004KT 10SM CLR 00/M11 A3001 RMK AO2
Conditions at: KMNH (MONUMENT/ELBERT , CO, US) observed 2314 UTC 19 December 2014
Temperature: 0.0°C (32°F)
Dewpoint: -11.0°C (12°F) [RH = 43%]
Pressure (altimeter): 30.01 inches Hg (1016.3 mb)
Winds: from the SE (130 degrees) at 5 MPH (4 knots; 2.1 m/s)
Visibility: 10 or more miles (16+ km)
Ceiling: at least 12,000 feet AGL
Clouds: sky clear below 12,000 feet AGL
Weather: automated observation with no human augmentation;
there may or may not be significant weather present at this time

METAR text: KMNH 192254Z AUTO 11003KT 10SM CLR 01/M11 A3002 RMK AO2
Conditions at: KMNH (MONUMENT/ELBERT , CO, US) observed 2254 UTC 19 December 2014
Temperature: 1.0°C (34°F)
Dewpoint: -11.0°C (12°F) [RH = 40%]
Pressure (altimeter): 30.02 inches Hg (1016.7 mb)
Winds: from the ESE (110 degrees) at 3 MPH (3 knots; 1.6 m/s)
Visibility: 10 or more miles (16+ km)
Ceiling: at least 12,000 feet AGL
Clouds: sky clear below 12,000 feet AGL
Weather: automated observation with no human augmentation;
there may or may not be significant weather present at this time

METAR text: KMNH 192234Z AUTO 00000KT 10SM CLR 02/M11 A3001 RMK AO2
Conditions at: KMNH (MONUMENT/ELBERT , CO, US) observed 2234 UTC 19 December 2014
Temperature: 2.0°C (36°F)
Dewpoint: -11.0°C (12°F) [RH = 37%]
Pressure (altimeter): 30.01 inches Hg (1016.3 mb)
Winds: calm
Visibility: 10 or more miles (16+ km)
Ceiling: at least 12,000 feet AGL
Clouds: sky clear below 12,000 feet AGL
Weather: automated observation with no human augmentation;
there may or may not be significant weather present at this time

METAR text: KMNH 192214Z AUTO 00000KT 10SM CLR 02/M12 A3001 RMK AO2
Conditions at: KMNH (MONUMENT/ELBERT , CO, US) observed 2214 UTC 19 December 2014
Temperature: 2.0°C (36°F)
Dewpoint: -12.0°C (10°F) [RH = 35%]
Pressure (altimeter): 30.01 inches Hg (1016.3 mb)
Winds: calm
Visibility: 10 or more miles (16+ km)
Ceiling: at least 12,000 feet AGL
Clouds: sky clear below 12,000 feet AGL
Weather: automated observation with no human augmentation;
there may or may not be significant weather present at this time

METAR text: KMNH 192154Z AUTO 00000KT 10SM CLR 03/M12 A3001 RMK AO2
Conditions at: KMNH (MONUMENT/ELBERT , CO, US) observed 2154 UTC 19 December 2014
Temperature: 3.0°C (37°F)
Dewpoint: -12.0°C (10°F) [RH = 32%]
Pressure (altimeter): 30.01 inches Hg (1016.3 mb)
Winds: calm
Visibility: 10 or more miles (16+ km)
Ceiling: at least 12,000 feet AGL
Clouds: sky clear below 12,000 feet AGL
Weather: automated observation with no human augmentation;
there may or may not be significant weather present at this time

METAR text: KMNH 192134Z AUTO 00000KT 10SM CLR 03/M11 A3000 RMK AO2
Conditions at: KMNH (MONUMENT/ELBERT , CO, US) observed 2134 UTC 19 December 2014
Temperature: 3.0°C (37°F)
Dewpoint: -11.0°C (12°F) [RH = 35%]
Pressure (altimeter): 30.00 inches Hg (1016.0 mb)
Winds: calm
Visibility: 10 or more miles (16+ km)
Ceiling: at least 12,000 feet AGL
Clouds: sky clear below 12,000 feet AGL
Weather: automated observation with no human augmentation;
there may or may not be significant weather present at this time

METAR text: KMNH 192114Z AUTO 20004KT 10SM CLR 03/M11 A3001 RMK AO2
Conditions at: KMNH (MONUMENT/ELBERT , CO, US) observed 2114 UTC 19 December 2014
Temperature: 3.0°C (37°F)
Dewpoint: -11.0°C (12°F) [RH = 35%]
Pressure (altimeter): 30.01 inches Hg (1016.3 mb)
Winds: from the SSW (200 degrees) at 5 MPH (4 knots; 2.1 m/s)
Visibility: 10 or more miles (16+ km)
Ceiling: at least 12,000 feet AGL
Clouds: sky clear below 12,000 feet AGL
Weather: automated observation with no human augmentation;
there may or may not be significant weather present at this time

METAR text: KMNH 192054Z AUTO 25003KT 10SM CLR 03/M11 A3002 RMK AO2
Conditions at: KMNH (MONUMENT/ELBERT , CO, US) observed 2054 UTC 19 December 2014
Temperature: 3.0°C (37°F)
Dewpoint: -11.0°C (12°F) [RH = 35%]
Pressure (altimeter): 30.02 inches Hg (1016.7 mb)
Winds: from the WSW (250 degrees) at 3 MPH (3 knots; 1.6 m/s)
Visibility: 10 or more miles (16+ km)
Ceiling: at least 12,000 feet AGL
Clouds: sky clear below 12,000 feet AGL
Weather: automated observation with no human augmentation;
there may or may not be significant weather present at this time

METAR text: KMNH 192034Z AUTO 17004KT 10SM CLR 03/M11 A3001 RMK AO2
Conditions at: KMNH (MONUMENT/ELBERT , CO, US) observed 2034 UTC 19 December 2014
Temperature: 3.0°C (37°F)
Dewpoint: -11.0°C (12°F) [RH = 35%]
Pressure (altimeter): 30.01 inches Hg (1016.3 mb)
Winds: from the S (170 degrees) at 5 MPH (4 knots; 2.1 m/s)
Visibility: 10 or more miles (16+ km)
Ceiling: at least 12,000 feet AGL
Clouds: sky clear below 12,000 feet AGL
Weather: automated observation with no human augmentation;
there may or may not be significant weather present at this time

METAR text: KMNH 192014Z AUTO 00000KT 10SM CLR 03/M11 A3002 RMK AO2
Conditions at: KMNH (MONUMENT/ELBERT , CO, US) observed 2014 UTC 19 December 2014
Temperature: 3.0°C (37°F)
Dewpoint: -11.0°C (12°F) [RH = 35%]
Pressure (altimeter): 30.02 inches Hg (1016.7 mb)
Winds: calm
Visibility: 10 or more miles (16+ km)
Ceiling: at least 12,000 feet AGL
Clouds: sky clear below 12,000 feet AGL
Weather: automated observation with no human augmentation;
there may or may not be significant weather present at this time

METAR text: KMNH 191954Z AUTO 20003KT 10SM CLR 03/M11 A3002 RMK AO2
Conditions at: KMNH (MONUMENT/ELBERT , CO, US) observed 1954 UTC 19 December 2014
Temperature: 3.0°C (37°F)
Dewpoint: -11.0°C (12°F) [RH = 35%]
Pressure (altimeter): 30.02 inches Hg (1016.7 mb)
Winds: from the SSW (200 degrees) at 3 MPH (3 knots; 1.6 m/s)
Visibility: 10 or more miles (16+ km)
Ceiling: at least 12,000 feet AGL
Clouds: sky clear below 12,000 feet AGL
Weather: automated observation with no human augmentation;
there may or may not be significant weather present at this time

METAR text: KMNH 191934Z AUTO 21003KT 10SM CLR 02/M11 A3003 RMK AO2
Conditions at: KMNH (MONUMENT/ELBERT , CO, US) observed 1934 UTC 19 December 2014
Temperature: 2.0°C (36°F)
Dewpoint: -11.0°C (12°F) [RH = 37%]
Pressure (altimeter): 30.03 inches Hg (1017.0 mb)
Winds: from the SSW (210 degrees) at 3 MPH (3 knots; 1.6 m/s)
Visibility: 10 or more miles (16+ km)
Ceiling: at least 12,000 feet AGL
Clouds: sky clear below 12,000 feet AGL
Weather: automated observation with no human augmentation;
there may or may not be significant weather present at this time

METAR text: KMNH 191914Z AUTO 00000KT 10SM CLR 02/M12 A3004 RMK AO2
Conditions at: KMNH (MONUMENT/ELBERT , CO, US) observed 1914 UTC 19 December 2014
Temperature: 2.0°C (36°F)
Dewpoint: -12.0°C (10°F) [RH = 35%]
Pressure (altimeter): 30.04 inches Hg (1017.4 mb)
Winds: calm
Visibility: 10 or more miles (16+ km)
Ceiling: at least 12,000 feet AGL
Clouds: sky clear below 12,000 feet AGL
Weather: automated observation with no human augmentation;
there may or may not be significant weather present at this time

METAR text: KMNH 191854Z AUTO 24003KT 10SM CLR 01/M11 A3005 RMK AO2
Conditions at: KMNH (MONUMENT/ELBERT , CO, US) observed 1854 UTC 19 December 2014
Temperature: 1.0°C (34°F)
Dewpoint: -11.0°C (12°F) [RH = 40%]
Pressure (altimeter): 30.05 inches Hg (1017.7 mb)
Winds: from the WSW (240 degrees) at 3 MPH (3 knots; 1.6 m/s)
Visibility: 10 or more miles (16+ km)
Ceiling: at least 12,000 feet AGL
Clouds: sky clear below 12,000 feet AGL
Weather: automated observation with no human augmentation;
there may or may not be significant weather present at this time

METAR text: KMNH 191834Z AUTO 00000KT 10SM CLR 01/M12 A3006 RMK AO2
Conditions at: KMNH (MONUMENT/ELBERT , CO, US) observed 1834 UTC 19 December 2014
Temperature: 1.0°C (34°F)
Dewpoint: -12.0°C (10°F) [RH = 37%]
Pressure (altimeter): 30.06 inches Hg (1018.0 mb)
Winds: calm
Visibility: 10 or more miles (16+ km)
Ceiling: at least 12,000 feet AGL
Clouds: sky clear below 12,000 feet AGL
Weather: automated observation with no human augmentation;
there may or may not be significant weather present at this time

METAR text: KMNH 191814Z AUTO 00000KT 10SM CLR 01/M12 A3007 RMK AO2
Conditions at: KMNH (MONUMENT/ELBERT , CO, US) observed 1814 UTC 19 December 2014
Temperature: 1.0°C (34°F)
Dewpoint: -12.0°C (10°F) [RH = 37%]
Pressure (altimeter): 30.07 inches Hg (1018.4 mb)
Winds: calm
Visibility: 10 or more miles (16+ km)
Ceiling: at least 12,000 feet AGL
Clouds: sky clear below 12,000 feet AGL
Weather: automated observation with no human augmentation;
there may or may not be significant weather present at this time

METAR text: KMNH 191754Z AUTO 00000KT 10SM CLR 00/M11 A3008 RMK AO2
Conditions at: KMNH (MONUMENT/ELBERT , CO, US) observed 1754 UTC 19 December 2014
Temperature: 0.0°C (32°F)
Dewpoint: -11.0°C (12°F) [RH = 43%]
Pressure (altimeter): 30.08 inches Hg (1018.7 mb)
Winds: calm
Visibility: 10 or more miles (16+ km)
Ceiling: at least 12,000 feet AGL
Clouds: sky clear below 12,000 feet AGL
Weather: automated observation with no human augmentation;
there may or may not be significant weather present at this time

METAR text: KMNH 191734Z AUTO 35005KT 10SM CLR 00/M11 A3008 RMK AO2
Conditions at: KMNH (MONUMENT/ELBERT , CO, US) observed 1734 UTC 19 December 2014
Temperature: 0.0°C (32°F)
Dewpoint: -11.0°C (12°F) [RH = 43%]
Pressure (altimeter): 30.08 inches Hg (1018.7 mb)
Winds: from the N (350 degrees) at 6 MPH (5 knots; 2.6 m/s)
Visibility: 10 or more miles (16+ km)
Ceiling: at least 12,000 feet AGL
Clouds: sky clear below 12,000 feet AGL
Weather: automated observation with no human augmentation;
there may or may not be significant weather present at this time

METAR text: KMNH 191714Z AUTO 34005KT 10SM CLR 00/M11 A3009 RMK AO2
Conditions at: KMNH (MONUMENT/ELBERT , CO, US) observed 1714 UTC 19 December 2014
Temperature: 0.0°C (32°F)
Dewpoint: -11.0°C (12°F) [RH = 43%]
Pressure (altimeter): 30.09 inches Hg (1019.0 mb)
Winds: from the NNW (340 degrees) at 6 MPH (5 knots; 2.6 m/s)
Visibility: 10 or more miles (16+ km)
Ceiling: at least 12,000 feet AGL
Clouds: sky clear below 12,000 feet AGL
Weather: automated observation with no human augmentation;
there may or may not be significant weather present at this time

METAR text: KMNH 191654Z AUTO 00000KT 10SM CLR 00/M10 A3009 RMK AO2
Conditions at: KMNH (MONUMENT/ELBERT , CO, US) observed 1654 UTC 19 December 2014
Temperature: 0.0°C (32°F)
Dewpoint: -10.0°C (14°F) [RH = 47%]
Pressure (altimeter): 30.09 inches Hg (1019.0 mb)
Winds: calm
Visibility: 10 or more miles (16+ km)
Ceiling: at least 12,000 feet AGL
Clouds: sky clear below 12,000 feet AGL
Weather: automated observation with no human augmentation;
there may or may not be significant weather present at this time

METAR text: KMNH 191634Z AUTO 29003KT 10SM CLR 00/M09 A3008 RMK AO2
Conditions at: KMNH (MONUMENT/ELBERT , CO, US) observed 1634 UTC 19 December 2014
Temperature: 0.0°C (32°F)
Dewpoint: -9.0°C (16°F) [RH = 51%]
Pressure (altimeter): 30.08 inches Hg (1018.7 mb)
Winds: from the WNW (290 degrees) at 3 MPH (3 knots; 1.6 m/s)
Visibility: 10 or more miles (16+ km)
Ceiling: at least 12,000 feet AGL
Clouds: sky clear below 12,000 feet AGL
Weather: automated observation with no human augmentation;
there may or may not be significant weather present at this time

METAR text: KMNH 191614Z AUTO 25004KT 10SM CLR M01/M07 A3008 RMK AO2
Conditions at: KMNH (MONUMENT/ELBERT , CO, US) observed 1614 UTC 19 December 2014
Temperature: -1.0°C (30°F)
Dewpoint: -7.0°C (19°F) [RH = 64%]
Pressure (altimeter): 30.08 inches Hg (1018.7 mb)
Winds: from the WSW (250 degrees) at 5 MPH (4 knots; 2.1 m/s)
Visibility: 10 or more miles (16+ km)
Ceiling: at least 12,000 feet AGL
Clouds: sky clear below 12,000 feet AGL
Weather: automated observation with no human augmentation;
there may or may not be significant weather present at this time

METAR text: KMNH 191554Z AUTO 25004KT 10SM CLR M02/M07 A3008 RMK AO2
Conditions at: KMNH (MONUMENT/ELBERT , CO, US) observed 1554 UTC 19 December 2014
Temperature: -2.0°C (28°F)
Dewpoint: -7.0°C (19°F) [RH = 69%]
Pressure (altimeter): 30.08 inches Hg (1018.7 mb)
Winds: from the WSW (250 degrees) at 5 MPH (4 knots; 2.1 m/s)
Visibility: 10 or more miles (16+ km)
Ceiling: at least 12,000 feet AGL
Clouds: sky clear below 12,000 feet AGL
Weather: automated observation with no human augmentation;
there may or may not be significant weather present at this time

METAR text: KMNH 191534Z AUTO 25006KT 10SM CLR M03/M08 A3008 RMK AO2
Conditions at: KMNH (MONUMENT/ELBERT , CO, US) observed 1534 UTC 19 December 2014
Temperature: -3.0°C (27°F)
Dewpoint: -8.0°C (18°F) [RH = 68%]
Pressure (altimeter): 30.08 inches Hg (1018.7 mb)
Winds: from the WSW (250 degrees) at 7 MPH (6 knots; 3.1 m/s)
Visibility: 10 or more miles (16+ km)
Ceiling: at least 12,000 feet AGL
Clouds: sky clear below 12,000 feet AGL
Weather: automated observation with no human augmentation;
there may or may not be significant weather present at this time

METAR text: KMNH 191514Z AUTO 26006KT 10SM CLR M07/M10 A3008 RMK AO2
Conditions at: KMNH (MONUMENT/ELBERT , CO, US) observed 1514 UTC 19 December 2014
Temperature: -7.0°C (19°F)
Dewpoint: -10.0°C (14°F) [RH = 79%]
Pressure (altimeter): 30.08 inches Hg (1018.7 mb)
Winds: from the W (260 degrees) at 7 MPH (6 knots; 3.1 m/s)
Visibility: 10 or more miles (16+ km)
Ceiling: at least 12,000 feet AGL
Clouds: sky clear below 12,000 feet AGL
Weather: automated observation with no human augmentation;
there may or may not be significant weather present at this time

METAR text: KMNH 191454Z AUTO 26005KT 10SM CLR M06/M10 A3007 RMK AO2
Conditions at: KMNH (MONUMENT/ELBERT , CO, US) observed 1454 UTC 19 December 2014
Temperature: -6.0°C (21°F)
Dewpoint: -10.0°C (14°F) [RH = 73%]
Pressure (altimeter): 30.07 inches Hg (1018.4 mb)
Winds: from the W (260 degrees) at 6 MPH (5 knots; 2.6 m/s)
Visibility: 10 or more miles (16+ km)
Ceiling: at least 12,000 feet AGL
Clouds: sky clear below 12,000 feet AGL
Weather: automated observation with no human augmentation;
there may or may not be significant weather present at this time

METAR text: KMNH 191434Z AUTO 24004KT 10SM BKN044 M07/M10 A3007 RMK AO2
Conditions at: KMNH (MONUMENT/ELBERT , CO, US) observed 1434 UTC 19 December 2014
Temperature: -7.0°C (19°F)
Dewpoint: -10.0°C (14°F) [RH = 79%]
Pressure (altimeter): 30.07 inches Hg (1018.4 mb)
Winds: from the WSW (240 degrees) at 5 MPH (4 knots; 2.1 m/s)
Visibility: 10 or more miles (16+ km)
Ceiling: 4400 feet AGL
Clouds: broken clouds at 4400 feet AGL
Weather: automated observation with no human augmentation;
there may or may not be significant weather present at this time

METAR text: KMNH 191414Z AUTO 23006KT 10SM SCT039 BKN046 M06/M09 A3007 RMK AO2
Conditions at: KMNH (MONUMENT/ELBERT , CO, US) observed 1414 UTC 19 December 2014
Temperature: -6.0°C (21°F)
Dewpoint: -9.0°C (16°F) [RH = 79%]
Pressure (altimeter): 30.07 inches Hg (1018.4 mb)
Winds: from the SW (230 degrees) at 7 MPH (6 knots; 3.1 m/s)
Visibility: 10 or more miles (16+ km)
Ceiling: 4600 feet AGL
Clouds: scattered clouds at 3900 feet AGL
broken clouds at 4600 feet AGL
Weather: automated observation with no human augmentation;
there may or may not be significant weather present at this time

METAR text: KMNH 191354Z AUTO 24006KT 10SM SCT037 M07/M10 A3007 RMK AO2
Conditions at: KMNH (MONUMENT/ELBERT , CO, US) observed 1354 UTC 19 December 2014
Temperature: -7.0°C (19°F)
Dewpoint: -10.0°C (14°F) [RH = 79%]
Pressure (altimeter): 30.07 inches Hg (1018.4 mb)
Winds: from the WSW (240 degrees) at 7 MPH (6 knots; 3.1 m/s)
Visibility: 10 or more miles (16+ km)
Ceiling: at least 12,000 feet AGL
Clouds: scattered clouds at 3700 feet AGL
Weather: automated observation with no human augmentation;
there may or may not be significant weather present at this time